Time;durP1;ratioP1;P1;durP2;ratioP2;P2;SDS_P1;SDS_P2;PMS_P1;PMS_P2;Temp;Humidity;BMP_temperature;BMP_pressure;BME280_temperature;BME280_humidity;BME280_pressure;Samples;Min_cycle;Max_cycle;Signal;HPM_P1;HPM_P2
2023/09/11 00:02:07;;;;;;;6.40;2.30;;;;;;;;;;5042420;28;20823;-65
2023/09/11 00:04:34;;;;;;;6.30;2.08;;;;;;;;;;5026504;28;20065;-65
2023/09/11 00:07:01;;;;;;;6.35;2.22;;;;;;;;;;5026995;28;20041;-64
2023/09/11 00:09:28;;;;;;;5.70;2.60;;;;;;;;;;5023922;28;20047;-65
2023/09/11 00:11:55;;;;;;;4.78;2.17;;;;;;;;;;5026799;28;20049;-65
2023/09/11 00:14:21;;;;;;;5.75;2.65;;;;;;;;;;5026472;28;20041;-66
2023/09/11 00:16:48;;;;;;;5.93;2.30;;;;;;;;;;5026175;28;20605;-63
2023/09/11 00:19:14;;;;;;;5.25;2.67;;;;;;;;;;5029454;28;20619;-63
2023/09/11 00:21:41;;;;;;;5.47;2.13;;;;;;;;;;5027568;28;20041;-63
2023/09/11 00:24:08;;;;;;;6.78;2.42;;;;;;;;;;5027135;28;20520;-64
2023/09/11 00:26:34;;;;;;;5.30;2.15;;;;;;;;;;5029386;28;20037;-64
2023/09/11 00:29:01;;;;;;;6.10;2.47;;;;;;;;;;5029134;28;20052;-64
2023/09/11 00:31:28;;;;;;;7.00;2.63;;;;;;;;;;5028055;28;20048;-65
2023/09/11 00:33:54;;;;;;;4.95;2.00;;;;;;;;;;5031410;28;20064;-65
2023/09/11 00:36:21;;;;;;;6.50;2.58;;;;;;;;;;5046391;28;20052;-64
2023/09/11 00:38:50;;;;;;;5.85;2.45;;;;;;;;;;5030252;28;20876;-64
2023/09/11 00:41:17;;;;;;;5.00;2.20;;;;;;;;;;5030924;28;20041;-65
2023/09/11 00:43:43;;;;;;;6.05;2.42;;;;;;;;;;5029836;28;20049;-65
2023/09/11 00:46:10;;;;;;;5.57;2.50;;;;;;;;;;5029554;28;20099;-65
2023/09/11 00:48:39;;;;;;;5.05;2.30;;;;;;;;;;5030132;28;20094;-65
2023/09/11 00:51:06;;;;;;;6.18;2.50;;;;;;;;;;5031589;28;20387;-65
2023/09/11 00:53:33;;;;;;;6.75;2.53;;;;;;;;;;5044309;28;20073;-65
2023/09/11 00:55:59;;;;;;;5.18;2.45;;;;;;;;;;5044933;28;20269;-64
2023/09/11 00:58:27;;;;;;;5.10;2.60;;;;;;;;;;5028055;28;20049;-64
2023/09/11 01:00:54;;;;;;;6.55;2.67;;;;;;;;;;5029717;28;20081;-64
2023/09/11 01:03:21;;;;;;;5.35;2.40;;;;;;;;;;5033892;28;20045;-65
2023/09/11 01:05:49;;;;;;;5.57;2.20;;;;;;;;;;5030950;28;20047;-64
2023/09/11 01:08:16;;;;;;;4.28;2.38;;;;;;;;;;5031047;28;20044;-66
2023/09/11 01:10:43;;;;;;;6.20;3.13;;;;;;;;;;5029020;28;20049;-66
2023/09/11 01:13:09;;;;;;;6.78;2.30;;;;;;;;;;5028557;28;20037;-65
2023/09/11 01:15:42;;;;;;;4.85;2.20;;;;;;;;;;5027559;28;20029;-66
2023/09/11 01:18:09;;;;;;;7.00;2.97;;;;;;;;;;5029404;28;20032;-63
2023/09/11 01:20:51;;;;;;;6.18;2.90;;;;;;;;;;5029513;28;20052;-65
2023/09/11 01:23:47;;;;;;;7.00;2.50;;;;;;;;;;5028941;28;20040;-64
2023/09/11 01:26:13;;;;;;;6.05;2.90;;;;;;;;;;4976659;28;20089;-66
2023/09/11 01:28:43;;;;;;;5.63;2.67;;;;;;;;;;5035368;28;20111;-66
2023/09/11 01:31:10;;;;;;;5.38;2.78;;;;;;;;;;5051169;28;20047;-66
2023/09/11 01:33:37;;;;;;;5.38;2.35;;;;;;;;;;5050940;28;20291;-65
2023/09/11 01:36:04;;;;;;;6.30;2.38;;;;;;;;;;5047631;28;20105;-66
2023/09/11 01:38:31;;;;;;;5.28;2.50;;;;;;;;;;5049383;28;20820;-66
2023/09/11 01:40:59;;;;;;;6.28;2.58;;;;;;;;;;5045932;28;20890;-66
2023/09/11 01:43:27;;;;;;;8.35;2.80;;;;;;;;;;5028618;28;20063;-65
2023/09/11 01:45:54;;;;;;;9.13;3.05;;;;;;;;;;5028746;28;20396;-65
2023/09/11 01:48:22;;;;;;;6.15;2.80;;;;;;;;;;5028098;28;20040;-68
2023/09/11 01:50:49;;;;;;;8.73;2.35;;;;;;;;;;5028901;28;20124;-69
2023/09/11 01:53:15;;;;;;;6.55;2.75;;;;;;;;;;5029232;28;20052;-68
2023/09/11 01:55:43;;;;;;;5.35;2.45;;;;;;;;;;5026654;28;20037;-67
2023/09/11 01:58:10;;;;;;;7.32;3.10;;;;;;;;;;5027889;28;20056;-66
2023/09/11 02:00:39;;;;;;;5.57;2.50;;;;;;;;;;5045055;28;20093;-68
2023/09/11 02:03:06;;;;;;;7.18;2.88;;;;;;;;;;5029433;28;20837;-68
2023/09/11 02:05:32;;;;;;;6.93;3.00;;;;;;;;;;5028145;28;20037;-70
2023/09/11 02:07:59;;;;;;;7.47;2.63;;;;;;;;;;5028147;28;20044;-65
2023/09/11 02:10:25;;;;;;;5.30;2.47;;;;;;;;;;5028959;28;20033;-67
2023/09/11 02:12:52;;;;;;;8.48;2.72;;;;;;;;;;5028753;28;20060;-68
2023/09/11 02:15:19;;;;;;;7.15;2.60;;;;;;;;;;5029697;28;20041;-68
2023/09/11 02:17:45;;;;;;;6.90;2.75;;;;;;;;;;5029764;28;20734;-66
2023/09/11 02:20:12;;;;;;;6.18;2.75;;;;;;;;;;5030527;28;20045;-64
2023/09/11 02:22:38;;;;;;;5.20;2.40;;;;;;;;;;5029582;28;20045;-66
2023/09/11 02:25:05;;;;;;;7.20;3.10;;;;;;;;;;5028554;28;20033;-67
2023/09/11 02:27:32;;;;;;;6.22;2.40;;;;;;;;;;5026265;28;20131;-67
2023/09/11 02:29:58;;;;;;;4.78;2.33;;;;;;;;;;5026591;28;20045;-68
2023/09/11 02:32:25;;;;;;;11.25;3.05;;;;;;;;;;5027396;28;21954;-64
2023/09/11 02:34:52;;;;;;;7.28;3.50;;;;;;;;;;5027550;28;20045;-68
2023/09/11 02:37:21;;;;;;;11.93;2.92;;;;;;;;;;5026704;28;20047;-69
2023/09/11 02:39:47;;;;;;;7.90;2.90;;;;;;;;;;5043062;28;20136;-68
2023/09/11 02:42:14;;;;;;;8.60;2.83;;;;;;;;;;5028353;28;20076;-67
2023/09/11 02:44:41;;;;;;;10.43;2.90;;;;;;;;;;5027959;28;20072;-68
2023/09/11 02:47:07;;;;;;;10.85;3.50;;;;;;;;;;5028155;28;20041;-68
2023/09/11 02:49:34;;;;;;;10.35;3.03;;;;;;;;;;5026983;28;20612;-68
2023/09/11 02:52:01;;;;;;;8.05;3.47;;;;;;;;;;5028005;28;20053;-68
2023/09/11 02:54:27;;;;;;;8.35;3.08;;;;;;;;;;5027219;28;20033;-67
2023/09/11 02:56:54;;;;;;;8.80;2.95;;;;;;;;;;5041155;28;20163;-68
2023/09/11 02:59:20;;;;;;;6.18;3.40;;;;;;;;;;5029025;28;20128;-68
2023/09/11 03:01:47;;;;;;;9.20;4.10;;;;;;;;;;5027528;28;20048;-68
2023/09/11 03:04:14;;;;;;;7.88;3.35;;;;;;;;;;5028657;28;20087;-68
2023/09/11 03:06:43;;;;;;;7.13;3.42;;;;;;;;;;5027544;28;20041;-68
2023/09/11 03:09:11;;;;;;;8.25;3.40;;;;;;;;;;5029206;28;20555;-67
2023/09/11 03:11:38;;;;;;;7.75;3.17;;;;;;;;;;5026109;28;20140;-67
2023/09/11 03:14:04;;;;;;;7.32;2.90;;;;;;;;;;5027480;28;20072;-67
2023/09/11 03:16:31;;;;;;;8.55;4.05;;;;;;;;;;5026888;28;20045;-71
2023/09/11 03:18:58;;;;;;;9.70;3.80;;;;;;;;;;5027551;28;20737;-68
2023/09/11 03:21:25;;;;;;;6.85;3.10;;;;;;;;;;5027475;28;20393;-68
2023/09/11 03:23:51;;;;;;;7.57;3.65;;;;;;;;;;5029456;28;20037;-67
2023/09/11 03:26:18;;;;;;;9.27;3.85;;;;;;;;;;5027400;28;20044;-66
2023/09/11 03:28:49;;;;;;;9.52;3.47;;;;;;;;;;5027287;28;20490;-69
2023/09/11 03:31:16;;;;;;;7.72;3.05;;;;;;;;;;5030023;28;20056;-67
2023/09/11 03:33:42;;;;;;;7.15;3.20;;;;;;;;;;5042944;28;20398;-67
2023/09/11 03:36:09;;;;;;;8.27;3.67;;;;;;;;;;5028161;28;20312;-65
2023/09/11 03:38:35;;;;;;;7.70;3.30;;;;;;;;;;5024910;28;20037;-67
2023/09/11 03:41:03;;;;;;;8.20;3.45;;;;;;;;;;5027607;28;20087;-65
2023/09/11 03:43:30;;;;;;;6.63;3.15;;;;;;;;;;5028167;28;20063;-63
2023/09/11 03:45:57;;;;;;;6.25;2.75;;;;;;;;;;5027370;28;20778;-66
2023/09/11 03:48:23;;;;;;;7.25;2.78;;;;;;;;;;5025127;28;20045;-64
2023/09/11 03:50:50;;;;;;;7.32;3.10;;;;;;;;;;5027161;28;20041;-63
2023/09/11 03:53:16;;;;;;;10.73;3.22;;;;;;;;;;5030119;28;20048;-64
2023/09/11 03:55:43;;;;;;;10.48;3.15;;;;;;;;;;5031626;28;20041;-64
2023/09/11 03:58:11;;;;;;;8.85;2.88;;;;;;;;;;5031541;28;20599;-62
2023/09/11 04:00:37;;;;;;;9.38;3.17;;;;;;;;;;5031348;28;20036;-66
2023/09/11 04:03:04;;;;;;;21.92;4.68;;;;;;;;;;5030157;28;20044;-65
2023/09/11 04:05:31;;;;;;;12.52;3.33;;;;;;;;;;5030604;28;20727;-64
2023/09/11 04:07:58;;;;;;;14.18;3.15;;;;;;;;;;5030429;28;21300;-64
2023/09/11 04:10:25;;;;;;;10.20;3.45;;;;;;;;;;5033473;28;20045;-62
2023/09/11 04:12:51;;;;;;;9.27;2.83;;;;;;;;;;5030734;28;20069;-64
2023/09/11 04:15:18;;;;;;;11.18;3.60;;;;;;;;;;5033262;28;20505;-65
2023/09/11 04:17:46;;;;;;;6.78;3.00;;;;;;;;;;5031935;28;20037;-63
2023/09/11 04:20:12;;;;;;;5.70;2.95;;;;;;;;;;5033154;28;20296;-63
2023/09/11 04:22:39;;;;;;;9.35;3.22;;;;;;;;;;5030414;28;20641;-63
2023/09/11 04:25:06;;;;;;;6.40;2.47;;;;;;;;;;5030694;28;20079;-65
2023/09/11 04:27:32;;;;;;;6.18;2.85;;;;;;;;;;5030541;28;20102;-63
2023/09/11 04:29:59;;;;;;;6.72;2.70;;;;;;;;;;5007678;28;20048;-64
2023/09/11 04:32:26;;;;;;;6.32;2.50;;;;;;;;;;5025027;28;20494;-62
2023/09/11 04:34:53;;;;;;;7.95;2.75;;;;;;;;;;5028551;28;20042;-63
2023/09/11 04:37:19;;;;;;;9.93;3.10;;;;;;;;;;5027840;28;20049;-63
2023/09/11 04:39:46;;;;;;;9.68;3.10;;;;;;;;;;5025670;28;20037;-63
2023/09/11 04:42:12;;;;;;;7.35;2.70;;;;;;;;;;5027404;28;20184;-64
2023/09/11 04:44:39;;;;;;;5.97;2.50;;;;;;;;;;5024850;28;20045;-64
2023/09/11 04:47:08;;;;;;;7.38;2.75;;;;;;;;;;5028549;28;20045;-64
2023/09/11 04:49:35;;;;;;;9.07;2.70;;;;;;;;;;5030051;28;20036;-63
2023/09/11 04:52:02;;;;;;;7.65;2.83;;;;;;;;;;5030763;28;20572;-64
2023/09/11 04:54:28;;;;;;;6.95;2.63;;;;;;;;;;5028965;28;20045;-64
2023/09/11 04:56:55;;;;;;;5.63;2.47;;;;;;;;;;5028997;28;20063;-63
2023/09/11 04:59:22;;;;;;;7.50;2.97;;;;;;;;;;5029548;28;20037;-63
2023/09/11 05:01:48;;;;;;;6.50;2.70;;;;;;;;;;5040008;28;20041;-63
2023/09/11 05:04:15;;;;;;;9.82;2.67;;;;;;;;;;5026875;28;20336;-63
2023/09/11 05:06:41;;;;;;;6.97;3.13;;;;;;;;;;5025294;28;20040;-63
2023/09/11 05:09:08;;;;;;;6.10;2.70;;;;;;;;;;5026779;28;20041;-63
2023/09/11 05:11:35;;;;;;;5.50;2.70;;;;;;;;;;5026284;28;20119;-64
2023/09/11 05:14:01;;;;;;;7.13;3.15;;;;;;;;;;5028218;28;20146;-64
2023/09/11 05:16:28;;;;;;;8.68;3.08;;;;;;;;;;5025671;28;20072;-63
2023/09/11 05:18:54;;;;;;;7.88;2.83;;;;;;;;;;5028131;28;20048;-66
2023/09/11 05:21:21;;;;;;;7.95;3.03;;;;;;;;;;5029718;28;20044;-63
2023/09/11 05:23:47;;;;;;;8.73;2.88;;;;;;;;;;5028935;28;20068;-64
2023/09/11 05:26:14;;;;;;;5.93;2.75;;;;;;;;;;5028830;28;20681;-63
2023/09/11 05:28:41;;;;;;;6.50;2.97;;;;;;;;;;5027938;28;20056;-63
2023/09/11 05:31:07;;;;;;;5.70;2.88;;;;;;;;;;5029427;28;20189;-64
2023/09/11 05:33:34;;;;;;;7.13;2.72;;;;;;;;;;5029411;28;20036;-62
2023/09/11 05:36:02;;;;;;;5.78;2.78;;;;;;;;;;5030188;28;20056;-64
2023/09/11 05:38:29;;;;;;;6.30;2.75;;;;;;;;;;5027905;28;20459;-65
2023/09/11 05:40:55;;;;;;;8.68;2.63;;;;;;;;;;5029900;28;20063;-63
2023/09/11 05:43:22;;;;;;;8.07;2.88;;;;;;;;;;5030873;28;20541;-64
2023/09/11 05:45:49;;;;;;;7.00;3.10;;;;;;;;;;5028552;28;20466;-63
2023/09/11 05:48:15;;;;;;;7.43;3.08;;;;;;;;;;5030416;28;20539;-63
2023/09/11 05:50:42;;;;;;;8.02;3.17;;;;;;;;;;5029656;28;20151;-63
2023/09/11 05:53:08;;;;;;;6.85;2.95;;;;;;;;;;5030502;28;20713;-63
2023/09/11 05:55:35;;;;;;;6.88;2.80;;;;;;;;;;5029061;28;20033;-63
2023/09/11 05:58:02;;;;;;;6.00;2.67;;;;;;;;;;5028039;28;20043;-63
2023/09/11 06:00:29;;;;;;;8.85;2.90;;;;;;;;;;5028393;28;20052;-62
2023/09/11 06:02:56;;;;;;;6.22;2.72;;;;;;;;;;5031826;28;20073;-64
2023/09/11 06:05:25;;;;;;;5.18;2.60;;;;;;;;;;5031203;28;20040;-63
2023/09/11 06:07:52;;;;;;;6.45;3.15;;;;;;;;;;5028024;28;20089;-63
2023/09/11 06:10:18;;;;;;;5.90;2.97;;;;;;;;;;5031522;28;20037;-63
2023/09/11 06:12:45;;;;;;;6.70;2.72;;;;;;;;;;5031269;28;20049;-63
2023/09/11 06:15:12;;;;;;;6.90;3.03;;;;;;;;;;5030022;28;20052;-63
2023/09/11 06:17:38;;;;;;;7.20;3.17;;;;;;;;;;5030316;28;20036;-63
2023/09/11 06:20:09;;;;;;;7.07;2.80;;;;;;;;;;5029371;28;20183;-64
2023/09/11 06:22:37;;;;;;;6.68;2.92;;;;;;;;;;5031911;28;20056;-64
2023/09/11 06:25:04;;;;;;;9.35;3.15;;;;;;;;;;5030471;28;20490;-63
2023/09/11 06:27:31;;;;;;;5.93;2.75;;;;;;;;;;5028279;28;20124;-62
2023/09/11 06:29:58;;;;;;;7.65;3.45;;;;;;;;;;5028258;28;20039;-62
2023/09/11 06:32:25;;;;;;;7.22;2.80;;;;;;;;;;5027637;28;20057;-63
2023/09/11 06:34:51;;;;;;;7.47;3.03;;;;;;;;;;5028813;28;20036;-62
2023/09/11 06:37:18;;;;;;;7.15;3.00;;;;;;;;;;5027716;28;20045;-63
2023/09/11 06:39:45;;;;;;;10.23;3.00;;;;;;;;;;5027935;28;20075;-62
2023/09/11 06:42:20;;;;;;;6.45;3.03;;;;;;;;;;5028566;28;20390;-63
2023/09/11 06:44:46;;;;;;;5.63;2.90;;;;;;;;;;5027342;28;20049;-62
2023/09/11 06:47:13;;;;;;;6.28;2.88;;;;;;;;;;5027193;28;20462;-63
2023/09/11 06:49:40;;;;;;;8.55;2.80;;;;;;;;;;5028020;28;20125;-63
2023/09/11 06:52:06;;;;;;;8.80;3.20;;;;;;;;;;5027348;28;20048;-62
2023/09/11 06:54:33;;;;;;;6.90;2.92;;;;;;;;;;5028842;28;20147;-63
2023/09/11 06:56:59;;;;;;;7.90;3.13;;;;;;;;;;5027461;28;20336;-61
2023/09/11 06:59:26;;;;;;;6.45;2.70;;;;;;;;;;5045175;28;20082;-62
2023/09/11 07:01:53;;;;;;;8.57;2.97;;;;;;;;;;5030072;28;20037;-63
2023/09/11 07:04:19;;;;;;;8.52;3.22;;;;;;;;;;5044229;28;20167;-63
2023/09/11 07:06:46;;;;;;;7.10;2.97;;;;;;;;;;5030342;28;21387;-62
2023/09/11 07:09:13;;;;;;;10.10;3.15;;;;;;;;;;5030713;28;20057;-63
2023/09/11 07:11:40;;;;;;;6.90;3.10;;;;;;;;;;5027950;28;20044;-63
2023/09/11 07:14:08;;;;;;;6.65;3.00;;;;;;;;;;5028259;28;20475;-62
2023/09/11 07:16:35;;;;;;;7.40;3.42;;;;;;;;;;5027963;28;20053;-61
2023/09/11 07:19:01;;;;;;;7.07;2.65;;;;;;;;;;5029627;28;20091;-65
2023/09/11 07:21:28;;;;;;;6.70;2.72;;;;;;;;;;5027534;28;20500;-59
2023/09/11 07:23:55;;;;;;;5.05;2.63;;;;;;;;;;5027047;28;20659;-60
2023/09/11 07:26:21;;;;;;;7.05;3.05;;;;;;;;;;5025801;28;20043;-62
2023/09/11 07:28:55;;;;;;;6.30;3.10;;;;;;;;;;5026147;28;20052;-59
2023/09/11 07:31:22;;;;;;;9.68;3.13;;;;;;;;;;5026175;28;20446;-62
2023/09/11 07:33:48;;;;;;;9.07;3.22;;;;;;;;;;5026803;28;20051;-61
2023/09/11 07:36:15;;;;;;;6.72;3.22;;;;;;;;;;5026865;28;20057;-63
2023/09/11 07:38:44;;;;;;;6.35;3.00;;;;;;;;;;5025443;28;20609;-61
2023/09/11 07:41:18;;;;;;;8.63;3.42;;;;;;;;;;5027089;28;20033;-61
2023/09/11 07:43:49;;;;;;;8.80;3.25;;;;;;;;;;5025089;28;20148;-61
2023/09/11 07:46:19;;;;;;;8.65;3.67;;;;;;;;;;5026653;28;20192;-63
2023/09/11 07:48:46;;;;;;;6.30;2.83;;;;;;;;;;5026580;28;21461;-63
2023/09/11 07:51:12;;;;;;;6.85;2.97;;;;;;;;;;5026326;28;21407;-60
2023/09/11 07:53:39;;;;;;;9.55;3.47;;;;;;;;;;5026229;28;20496;-62
2023/09/11 07:56:07;;;;;;;7.43;3.00;;;;;;;;;;5025742;28;20124;-63
2023/09/11 07:58:37;;;;;;;7.28;3.33;;;;;;;;;;5026697;28;20025;-61
2023/09/11 08:01:04;;;;;;;8.82;3.20;;;;;;;;;;5026497;28;20053;-62
2023/09/11 08:03:34;;;;;;;8.82;3.30;;;;;;;;;;5025556;28;20041;-62
2023/09/11 08:06:01;;;;;;;6.38;3.25;;;;;;;;;;5025803;28;20033;-63
2023/09/11 08:08:28;;;;;;;8.88;3.47;;;;;;;;;;5025491;28;20480;-63
2023/09/11 08:10:54;;;;;;;7.75;3.25;;;;;;;;;;5027891;28;20602;-64
2023/09/11 08:13:21;;;;;;;8.50;3.35;;;;;;;;;;5027437;28;20037;-62
2023/09/11 08:15:47;;;;;;;6.50;2.80;;;;;;;;;;5026562;28;20776;-63
2023/09/11 08:18:14;;;;;;;7.03;3.15;;;;;;;;;;5025370;28;20044;-63
2023/09/11 08:20:46;;;;;;;13.18;3.03;;;;;;;;;;5023772;28;20123;-63
2023/09/11 08:23:12;;;;;;;6.90;3.20;;;;;;;;;;5026072;28;20533;-63
2023/09/11 08:25:39;;;;;;;7.63;3.42;;;;;;;;;;5025476;28;20036;-63
2023/09/11 08:28:06;;;;;;;7.97;3.15;;;;;;;;;;5026387;28;20562;-60
2023/09/11 08:30:32;;;;;;;7.43;3.42;;;;;;;;;;5025710;28;20045;-62
2023/09/11 08:32:59;;;;;;;12.15;3.40;;;;;;;;;;5025742;28;20405;-63
2023/09/11 08:35:26;;;;;;;12.10;3.42;;;;;;;;;;5027043;28;20037;-62
2023/09/11 08:37:53;;;;;;;7.85;3.67;;;;;;;;;;5025745;28;20081;-64
2023/09/11 08:40:21;;;;;;;7.03;3.33;;;;;;;;;;5030315;28;20398;-64
2023/09/11 08:42:48;;;;;;;6.22;2.92;;;;;;;;;;5028930;28;20120;-63
2023/09/11 08:45:14;;;;;;;9.20;3.50;;;;;;;;;;5030238;28;20044;-61
2023/09/11 08:47:42;;;;;;;7.10;3.15;;;;;;;;;;5028736;28;20532;-62
2023/09/11 08:50:09;;;;;;;10.15;3.85;;;;;;;;;;5030695;28;20048;-63
2023/09/11 08:52:35;;;;;;;13.15;3.60;;;;;;;;;;5030522;28;20072;-62
2023/09/11 08:55:04;;;;;;;8.95;3.50;;;;;;;;;;5030899;28;20509;-61
2023/09/11 08:57:33;;;;;;;7.60;3.70;;;;;;;;;;5030848;28;20033;-62
2023/09/11 09:00:04;;;;;;;9.68;3.58;;;;;;;;;;5047569;28;20037;-61
2023/09/11 09:02:31;;;;;;;9.80;3.40;;;;;;;;;;5026893;28;20033;-62
2023/09/11 09:04:58;;;;;;;7.97;3.70;;;;;;;;;;5030336;28;20063;-63
2023/09/11 09:07:25;;;;;;;10.38;4.03;;;;;;;;;;5028730;28;20048;-61
2023/09/11 09:09:52;;;;;;;8.55;3.60;;;;;;;;;;5031738;28;20048;-62
2023/09/11 09:12:19;;;;;;;10.30;3.47;;;;;;;;;;5029903;28;20461;-61
2023/09/11 09:14:46;;;;;;;11.32;3.80;;;;;;;;;;5025821;28;20048;-63
2023/09/11 09:17:12;;;;;;;9.23;3.38;;;;;;;;;;5029304;28;20548;-63
2023/09/11 09:19:39;;;;;;;9.15;3.65;;;;;;;;;;5028806;28;21462;-63
2023/09/11 09:22:05;;;;;;;10.98;3.85;;;;;;;;;;5029146;28;20040;-64
2023/09/11 09:24:32;;;;;;;10.95;3.88;;;;;;;;;;5027944;28;20045;-63
2023/09/11 09:27:00;;;;;;;9.77;3.92;;;;;;;;;;5030235;28;20402;-61
2023/09/11 09:29:26;;;;;;;10.07;3.47;;;;;;;;;;5030135;28;20106;-62
2023/09/11 09:31:53;;;;;;;10.60;3.95;;;;;;;;;;5028713;28;20565;-61
2023/09/11 09:34:20;;;;;;;11.18;3.70;;;;;;;;;;5028084;28;20572;-61
2023/09/11 09:36:53;;;;;;;10.07;3.78;;;;;;;;;;5025584;28;20075;-62
2023/09/11 09:39:19;;;;;;;;;;;;;;;;;;5031758;28;20079;-62
2023/09/11 09:42:00;;;;;;;8.18;3.78;;;;;;;;;;5030034;28;20436;-62
2023/09/11 09:44:29;;;;;;;8.00;4.10;;;;;;;;;;5027963;28;20052;-62
2023/09/11 09:46:56;;;;;;;10.32;4.32;;;;;;;;;;5028613;28;20063;-62
2023/09/11 09:49:23;;;;;;;10.25;3.92;;;;;;;;;;5028668;28;20041;-61
2023/09/11 09:51:49;;;;;;;10.38;4.22;;;;;;;;;;5028264;28;20136;-63
2023/09/11 09:54:16;;;;;;;9.52;4.40;;;;;;;;;;5023622;28;20025;-64
2023/09/11 09:56:43;;;;;;;8.68;3.90;;;;;;;;;;5028198;28;20052;-62
2023/09/11 09:59:09;;;;;;;13.75;4.53;;;;;;;;;;5030009;28;20548;-63
2023/09/11 10:01:45;;;;;;;7.82;3.95;;;;;;;;;;5028839;28;20500;-63
2023/09/11 10:04:16;;;;;;;11.60;3.70;;;;;;;;;;5028668;28;20071;-63
2023/09/11 10:06:42;;;;;;;12.55;4.03;;;;;;;;;;5026957;28;20528;-63
2023/09/11 10:09:14;;;;;;;10.43;4.50;;;;;;;;;;5029751;28;20053;-62
2023/09/11 10:11:41;;;;;;;8.40;3.67;;;;;;;;;;5042509;28;20555;-63
2023/09/11 10:14:09;;;;;;;11.50;4.35;;;;;;;;;;5027065;28;20044;-61
2023/09/11 10:16:36;;;;;;;11.35;3.90;;;;;;;;;;5027472;28;20041;-63
2023/09/11 10:19:03;;;;;;;10.05;3.95;;;;;;;;;;5028816;28;20126;-63
2023/09/11 10:21:30;;;;;;;10.80;4.25;;;;;;;;;;5043599;28;20266;-63
2023/09/11 10:23:57;;;;;;;12.38;3.95;;;;;;;;;;5027180;28;20039;-65
2023/09/11 10:26:23;;;;;;;11.18;4.43;;;;;;;;;;5025872;28;20128;-64
2023/09/11 10:28:52;;;;;;;9.02;4.22;;;;;;;;;;5042972;28;20091;-65
2023/09/11 10:31:26;;;;;;;10.10;4.20;;;;;;;;;;5046168;28;20414;-66
2023/09/11 10:33:57;;;;;;;12.38;3.60;;;;;;;;;;5027465;28;20068;-65
2023/09/11 10:36:26;;;;;;;8.73;4.03;;;;;;;;;;5027925;28;20033;-64
2023/09/11 10:38:55;;;;;;;13.07;4.57;;;;;;;;;;5028977;28;20721;-63
2023/09/11 10:41:21;;;;;;;10.43;4.30;;;;;;;;;;5028596;28;20037;-65
2023/09/11 10:43:48;;;;;;;9.48;3.78;;;;;;;;;;5028262;28;20131;-64
2023/09/11 10:46:16;;;;;;;11.80;3.83;;;;;;;;;;5027318;28;20076;-65
2023/09/11 10:48:42;;;;;;;10.05;4.07;;;;;;;;;;5026376;28;20699;-63
2023/09/11 10:51:09;;;;;;;9.90;3.85;;;;;;;;;;5027883;28;20167;-64
2023/09/11 10:53:35;;;;;;;8.82;4.13;;;;;;;;;;5027819;28;20048;-64
2023/09/11 10:56:02;;;;;;;9.75;4.43;;;;;;;;;;5027395;28;20091;-63
2023/09/11 10:58:29;;;;;;;8.82;4.15;;;;;;;;;;5045087;28;20597;-64
2023/09/11 11:00:56;;;;;;;8.23;4.18;;;;;;;;;;5023768;28;20666;-64
2023/09/11 11:03:27;;;;;;;11.23;4.10;;;;;;;;;;5025412;28;20528;-67
2023/09/11 11:05:53;;;;;;;8.27;4.15;;;;;;;;;;5027077;28;20033;-64
2023/09/11 11:08:20;;;;;;;11.38;4.30;;;;;;;;;;5028874;28;20151;-62
2023/09/11 11:10:47;;;;;;;14.55;4.90;;;;;;;;;;5027095;28;20095;-62
2023/09/11 11:13:14;;;;;;;15.50;4.78;;;;;;;;;;5040139;28;20053;-63
2023/09/11 11:15:41;;;;;;;11.93;4.45;;;;;;;;;;5026889;28;20033;-64
2023/09/11 11:18:12;;;;;;;13.30;4.38;;;;;;;;;;5043890;28;20037;-66
2023/09/11 11:20:58;;;;;;;8.27;3.92;;;;;;;;;;5026422;28;20053;-63
2023/09/11 11:23:26;;;;;;;10.80;4.78;;;;;;;;;;5024500;28;20410;-63
2023/09/11 11:25:53;;;;;;;9.07;4.65;;;;;;;;;;5026640;28;20044;-63
2023/09/11 11:28:22;;;;;;;10.68;4.22;;;;;;;;;;5027921;28;20604;-62
2023/09/11 11:30:52;;;;;;;7.70;3.95;;;;;;;;;;5026275;28;20317;-63
2023/09/11 11:33:20;;;;;;;9.68;4.43;;;;;;;;;;5042447;28;20063;-63
2023/09/11 11:35:47;;;;;;;13.23;4.22;;;;;;;;;;5026234;28;20036;-62
2023/09/11 11:38:18;;;;;;;9.55;3.95;;;;;;;;;;5027181;28;20219;-61
2023/09/11 11:40:45;;;;;;;10.30;4.20;;;;;;;;;;5023939;28;20526;-64
2023/09/11 11:43:12;;;;;;;7.22;4.20;;;;;;;;;;5023745;28;20044;-62
2023/09/11 11:45:43;;;;;;;11.02;4.45;;;;;;;;;;5026749;28;20048;-61
2023/09/11 11:48:12;;;;;;;10.18;4.40;;;;;;;;;;5028721;28;20469;-63
2023/09/11 11:50:45;;;;;;;9.05;4.22;;;;;;;;;;5033324;28;20128;-63
2023/09/11 11:53:22;;;;;;;9.32;4.57;;;;;;;;;;5026744;28;20313;-63
2023/09/11 11:55:50;;;;;;;11.23;4.65;;;;;;;;;;5017829;28;20406;-63
2023/09/11 11:58:17;;;;;;;7.72;4.47;;;;;;;;;;5022916;28;20103;-62
2023/09/11 12:00:59;;;;;;;12.57;5.55;;;;;;;;;;5026286;28;20581;-62
2023/09/11 12:03:30;;;;;;;11.73;5.20;;;;;;;;;;5043933;28;20471;-63
2023/09/11 12:05:58;;;;;;;10.05;5.30;;;;;;;;;;5023733;28;20040;-63
2023/09/11 12:08:24;;;;;;;13.55;5.50;;;;;;;;;;5037403;28;20131;-63
2023/09/11 12:10:51;;;;;;;12.18;5.57;;;;;;;;;;5024771;28;21708;-61
2023/09/11 12:13:18;;;;;;;10.40;5.38;;;;;;;;;;5026254;28;20568;-65
2023/09/11 12:15:52;;;;;;;19.40;5.70;;;;;;;;;;5029777;28;20045;-63
2023/09/11 12:18:41;;;;;;;11.30;5.60;;;;;;;;;;5028833;28;20041;-63
2023/09/11 12:21:08;;;;;;;16.38;5.15;;;;;;;;;;5013147;28;20710;-63
2023/09/11 12:23:35;;;;;;;11.35;6.22;;;;;;;;;;5028302;28;20048;-63
2023/09/11 12:26:05;;;;;;;16.02;5.70;;;;;;;;;;5029015;28;20128;-62
2023/09/11 12:28:32;;;;;;;17.38;6.10;;;;;;;;;;5014266;28;20191;-62
2023/09/11 12:30:59;;;;;;;14.50;6.45;;;;;;;;;;5014012;28;20633;-63
2023/09/11 12:33:27;;;;;;;14.73;6.30;;;;;;;;;;5030806;28;20128;-65
2023/09/11 12:35:57;;;;;;;14.20;7.10;;;;;;;;;;5014588;28;20077;-63
2023/09/11 12:38:24;;;;;;;11.20;6.45;;;;;;;;;;5013641;28;20075;-60
2023/09/11 12:40:51;;;;;;;12.98;6.18;;;;;;;;;;5039875;28;20059;-62
2023/09/11 12:43:19;;;;;;;12.52;6.00;;;;;;;;;;5038470;28;20052;-62
2023/09/11 12:45:46;;;;;;;11.52;5.75;;;;;;;;;;5033082;28;20043;-66
2023/09/11 12:48:13;;;;;;;14.70;6.03;;;;;;;;;;5028982;28;20037;-67
2023/09/11 12:50:40;;;;;;;18.02;6.30;;;;;;;;;;5028776;28;20065;-66
2023/09/11 12:53:07;;;;;;;12.43;5.38;;;;;;;;;;5028058;28;20072;-68
2023/09/11 12:55:34;;;;;;;15.85;6.25;;;;;;;;;;5022308;28;20533;-67
2023/09/11 12:58:01;;;;;;;11.98;5.38;;;;;;;;;;5027974;28;20041;-65
2023/09/11 13:00:32;;;;;;;18.67;6.25;;;;;;;;;;5029050;28;20168;-67
2023/09/11 13:02:59;;;;;;;11.80;6.25;;;;;;;;;;5029187;28;20033;-66
2023/09/11 13:05:26;;;;;;;14.82;5.30;;;;;;;;;;5043109;28;20477;-65
2023/09/11 13:07:53;;;;;;;18.27;5.63;;;;;;;;;;5028485;28;20037;-68
2023/09/11 13:10:23;;;;;;;11.75;4.93;;;;;;;;;;5029789;28;20446;-67
2023/09/11 13:12:50;;;;;;;16.55;5.75;;;;;;;;;;5019396;28;20102;-67
2023/09/11 13:15:18;;;;;;;12.38;5.45;;;;;;;;;;5045729;28;20538;-61
2023/09/11 13:17:45;;;;;;;15.45;5.20;;;;;;;;;;5048483;28;20048;-67
2023/09/11 23:37:21;;;;;;;4.43;1.83;;;;;;;;;;5010390;28;20447;-68
2023/09/11 23:39:48;;;;;;;7.13;2.10;;;;;;;;;;4979421;28;20050;-70
2023/09/11 23:42:14;;;;;;;4.40;1.63;;;;;;;;;;4979596;28;20101;-68
2023/09/11 23:44:41;;;;;;;3.90;1.80;;;;;;;;;;4977400;28;20074;-69
2023/09/11 23:47:07;;;;;;;5.53;2.03;;;;;;;;;;4973395;28;20136;-69
2023/09/11 23:49:34;;;;;;;4.68;2.10;;;;;;;;;;4965251;28;20380;-66
2023/09/11 23:52:01;;;;;;;6.63;1.95;;;;;;;;;;4956946;28;20038;-68
2023/09/11 23:54:27;;;;;;;8.57;1.92;;;;;;;;;;4969281;28;20170;-68
2023/09/11 23:56:54;;;;;;;6.05;1.98;;;;;;;;;;4962616;28;20460;-68
2023/09/11 23:59:21;;;;;;;4.28;2.00;;;;;;;;;;4963711;28;20134;-67
